Cape Endless — V7WB3 — position and weather

sailwx.info

Track history (hours):
 
Tides and Currents Weather Stations Pressure Air Temp Water Temp Dewpoint Dewpoint Depression Visibility Wind Speed Wind Dir Waves Ship Positions

Cape Endless

Last reported at 2015-Sep-24 23:27 UTC. Time now 2016-Jul-31 09:26 UTC.
Position N 01°11' E 103°41'.
Warning: this ship's position is months out of date.

Length 243 m; draft 4.7 m.

Type: Ship. MMSI: 538006185.

Date/timePositionNaut miles runAvg speedWind from/ knotsBaromVisibWave heightAir tempDewpointWater temp
2015-Sep-24 23:27N 01°11' E 103°41'0 0.0
2015-Sep-24 19:21N 01°11' E 103°41'0 0.0
2015-Sep-24 06:30N 01°11' E 103°41'0 0.0
2015-Sep-24 05:21N 01°11' E 103°41'0 0.0
2015-Sep-24 04:33N 01°11' E 103°41'0 0.0
2015-Sep-23 08:24N 01°11' E 103°41'0 0.0
2015-Sep-23 04:21N 01°11' E 103°41'0 0.0
2015-Sep-23 03:33N 01°11' E 103°41'0 0.0
2015-Sep-22 21:33N 01°11' E 103°41'0 0.0
2015-Sep-22 15:18N 01°11' E 103°41'0 0.1
2015-Sep-22 14:30N 01°11' E 103°41'11 4.9
2015-Sep-22 12:11N 01°12' E 103°52'6 9.3
2015-Sep-22 11:33N 01°15' E 103°58'1110.4
2015-Sep-22 10:33N 01°17' E 104°08'  
2015-Sep-16 20:33N 01°15' E 104°08'1313.3
2015-Sep-16 19:33N 01°13' E 103°55'12 3.6
2015-Sep-16 16:04N 01°10' E 103°43'1 0.4
2015-Sep-16 14:33N 01°11' E 103°42'0 0.0
2015-Sep-16 12:30N 01°11' E 103°42'0 0.1
2015-Sep-16 11:33N 01°11' E 103°43'0 0.0
2015-Sep-16 06:33N 01°11' E 103°43'3 2.9
2015-Sep-16 05:33N 01°13' E 103°41'4 1.9
2015-Sep-16 03:30N 01°14' E 103°45'0 0.0
2015-Sep-16 02:30N 01°14' E 103°45'0 0.0
2015-Sep-15 21:24N 01°14' E 103°45'0 0.0
2015-Sep-15 20:30N 01°14' E 103°45'0 0.0
2015-Sep-15 00:33N 01°14' E 103°45'2 2.5
2015-Sep-14 23:33N 01°14' E 103°42'  
Track history (hours):
 
Tides and Currents Weather Stations Pressure Air Temp Water Temp Dewpoint Dewpoint Depression Visibility Wind Speed Wind Dir Waves Ship Positions

Cape Endless

Last reported at 2015-Sep-24 23:27 UTC. Time now 2016-Jul-31 09:26 UTC.
Position N 01°11' E 103°41'.
Warning: this ship's position is months out of date.

Length 243 m; draft 4.7 m.

Type: Ship. MMSI: 538006185.

Date/timePositionNaut miles runAvg speedWind from/ knotsBaromVisibWave heightAir tempDewpointWater temp
2015-Sep-24 23:27N 01°11' E 103°41'0 0.0
2015-Sep-24 19:21N 01°11' E 103°41'0 0.0
2015-Sep-24 06:30N 01°11' E 103°41'0 0.0
2015-Sep-24 05:21N 01°11' E 103°41'0 0.0
2015-Sep-24 04:33N 01°11' E 103°41'0 0.0
2015-Sep-23 08:24N 01°11' E 103°41'0 0.0
2015-Sep-23 04:21N 01°11' E 103°41'0 0.0
2015-Sep-23 03:33N 01°11' E 103°41'0 0.0
2015-Sep-22 21:33N 01°11' E 103°41'0 0.0
2015-Sep-22 15:18N 01°11' E 103°41'0 0.1
2015-Sep-22 14:30N 01°11' E 103°41'11 4.9
2015-Sep-22 12:11N 01°12' E 103°52'6 9.3
2015-Sep-22 11:33N 01°15' E 103°58'1110.4
2015-Sep-22 10:33N 01°17' E 104°08'  
2015-Sep-16 20:33N 01°15' E 104°08'1313.3
2015-Sep-16 19:33N 01°13' E 103°55'12 3.6
2015-Sep-16 16:04N 01°10' E 103°43'1 0.4
2015-Sep-16 14:33N 01°11' E 103°42'0 0.0
2015-Sep-16 12:30N 01°11' E 103°42'0 0.1
2015-Sep-16 11:33N 01°11' E 103°43'0 0.0
2015-Sep-16 06:33N 01°11' E 103°43'3 2.9
2015-Sep-16 05:33N 01°13' E 103°41'4 1.9
2015-Sep-16 03:30N 01°14' E 103°45'0 0.0
2015-Sep-16 02:30N 01°14' E 103°45'0 0.0
2015-Sep-15 21:24N 01°14' E 103°45'0 0.0
2015-Sep-15 20:30N 01°14' E 103°45'0 0.0
2015-Sep-15 00:33N 01°14' E 103°45'2 2.5
2015-Sep-14 23:33N 01°14' E 103°42'  

Dump ship's entire track history